Time;durP1;ratioP1;P1;durP2;ratioP2;P2;SDS_P1;SDS_P2;PMS_P1;PMS_P2;Temp;Humidity;BMP_temperature;BMP_pressure;BME280_temperature;BME280_humidity;BME280_pressure;Samples;Min_cycle;Max_cycle;Signal;HPM_P1;HPM_P2
2023/12/10 00:02:18;;;;;;;2.70;1.90;;;;;;;-0.54;nan;-23799.91;5030237;28;20189;-64
2023/12/10 00:04:45;;;;;;;1.60;1.50;;;;;;;-0.47;nan;-23801.78;5030342;28;20664;-64
2023/12/10 00:07:10;;;;;;;6.57;2.47;;;;;;;-0.57;nan;-23799.06;5030101;28;20197;-64
2023/12/10 00:09:36;;;;;;;1.63;1.53;;;;;;;-0.43;nan;-23802.94;5030348;28;20246;-64
2023/12/10 00:12:02;;;;;;;1.40;1.33;;;;;;;-0.37;nan;-23804.50;5030342;28;20186;-65
2023/12/10 00:14:27;;;;;;;2.30;2.10;;;;;;;-0.65;nan;-23796.63;5030218;28;20200;-65
2023/12/10 00:16:53;;;;;;;1.60;1.50;;;;;;;-0.37;nan;-23804.66;5033080;28;20495;-65
2023/12/10 00:19:19;;;;;;;1.87;1.77;;;;;;;-0.46;nan;-23802.22;5033953;28;20184;-64
2023/12/10 00:21:44;;;;;;;1.60;1.50;;;;;;;-0.31;nan;-23806.38;5034171;28;20177;-65
2023/12/10 00:24:09;;;;;;;1.83;1.73;;;;;;;-0.37;nan;-23804.66;5033983;28;20230;-64
2023/12/10 00:26:35;;;;;;;1.30;1.30;;;;;;;-0.32;nan;-23806.09;5032089;28;20182;-65
2023/12/10 00:29:00;;;;;;;1.60;1.50;;;;;;;-0.46;nan;-23802.22;5033737;28;20178;-65
2023/12/10 00:31:27;;;;;;;1.20;1.20;;;;;;;-0.28;nan;-23807.22;5037650;28;20219;-63
2023/12/10 00:33:52;;;;;;;1.97;1.73;;;;;;;-0.24;nan;-23808.38;5033420;28;20225;-65
2023/12/10 00:36:20;;;;;;;1.97;1.70;;;;;;;-0.59;nan;-23798.50;5033307;28;20304;-65
2023/12/10 00:38:46;;;;;;;2.33;2.13;;;;;;;-0.28;nan;-23807.22;5033293;28;20270;-64
2023/12/10 00:41:12;;;;;;;2.03;1.83;;;;;;;-0.38;nan;-23804.22;5032955;28;20592;-65
2023/12/10 00:43:41;;;;;;;2.00;1.60;;;;;;;-0.43;nan;-23802.78;5033038;28;20644;-64
2023/12/10 00:46:07;;;;;;;1.80;1.70;;;;;;;-0.49;nan;-23801.22;5033084;28;20247;-65
2023/12/10 00:48:37;;;;;;;1.30;1.30;;;;;;;-0.59;nan;-23798.34;5033288;28;20661;-65
2023/12/10 00:51:03;;;;;;;4.27;2.10;;;;;;;-0.54;nan;-23799.91;5033260;28;20240;-65
2023/12/10 00:53:28;;;;;;;1.30;1.30;;;;;;;-0.33;nan;-23805.66;5033234;28;20715;-65
2023/12/10 00:55:54;;;;;;;2.00;1.90;;;;;;;-0.52;nan;-23800.34;5033151;28;20771;-64
2023/12/10 00:58:19;;;;;;;2.00;1.90;;;;;;;-0.45;nan;-23802.34;5032996;28;20254;-65
2023/12/10 01:00:45;;;;;;;1.33;1.30;;;;;;;-0.42;nan;-23803.22;5031970;28;20196;-65
2023/12/10 01:03:10;;;;;;;2.33;2.13;;;;;;;-0.61;nan;-23797.91;5032541;28;20220;-65
2023/12/10 01:05:36;;;;;;;1.50;1.40;;;;;;;-0.52;nan;-23800.50;5032052;28;20279;-66
2023/12/10 01:08:03;;;;;;;1.53;1.30;;;;;;;-0.51;nan;-23800.63;5031265;28;20247;-64
2023/12/10 01:10:29;;;;;;;1.83;1.70;;;;;;;-0.89;nan;-23789.88;5032543;28;20226;-65
2023/12/10 01:12:55;;;;;;;2.10;1.87;;;;;;;-0.80;nan;-23792.47;5030795;28;20234;-65
2023/12/10 01:15:29;;;;;;;1.17;1.17;;;;;;;-0.64;nan;-23797.06;5031122;28;20679;-65
2023/12/10 01:18:00;;;;;;;1.73;1.63;;;;;;;-0.80;nan;-23792.31;5030286;28;20587;-65
2023/12/10 01:20:28;;;;;;;1.40;1.40;;;;;;;-0.57;nan;-23798.91;5032101;28;20183;-65
2023/12/10 01:22:54;;;;;;;1.53;1.43;;;;;;;-0.67;nan;-23796.19;5031370;28;20251;-65
2023/12/10 01:25:19;;;;;;;1.60;1.50;;;;;;;-0.89;nan;-23789.88;5031918;28;20231;-65
2023/12/10 01:27:45;;;;;;;1.20;1.20;;;;;;;-0.74;nan;-23794.19;5029416;28;20668;-64
2023/12/10 01:30:11;;;;;;;1.80;1.70;;;;;;;-0.63;nan;-23797.34;5031194;28;20271;-65
2023/12/10 01:32:36;;;;;;;1.80;1.60;;;;;;;-0.56;nan;-23799.22;5031799;28;20250;-64
2023/12/10 01:35:04;;;;;;;1.67;1.57;;;;;;;-0.84;nan;-23791.19;5033480;28;20220;-64
2023/12/10 01:37:29;;;;;;;2.03;1.63;;;;;;;-0.73;nan;-23794.34;5034115;28;20187;-65
2023/12/10 01:39:55;;;;;;;2.60;1.73;;;;;;;-0.60;nan;-23798.06;5030449;28;20189;-65
2023/12/10 01:42:20;;;;;;;1.47;1.40;;;;;;;-0.72;nan;-23794.63;5029262;28;20695;-66
2023/12/10 01:44:46;;;;;;;1.83;1.73;;;;;;;-0.44;nan;-23802.66;5029453;28;20255;-65
2023/12/10 01:47:13;;;;;;;1.30;1.30;;;;;;;-0.65;nan;-23796.78;5030934;28;20182;-65
2023/12/10 01:49:39;;;;;;;1.30;1.30;;;;;;;-0.43;nan;-23802.78;5032346;28;20188;-65
2023/12/10 01:52:05;;;;;;;1.23;1.23;;;;;;;-0.65;nan;-23796.63;5031050;28;20645;-64
2023/12/10 01:54:31;;;;;;;1.30;1.30;;;;;;;-0.39;nan;-23804.06;5029693;28;20622;-64
2023/12/10 01:56:57;;;;;;;1.40;1.40;;;;;;;-0.39;nan;-23803.94;5030344;28;20198;-65
2023/12/10 01:59:23;;;;;;;1.57;1.47;;;;;;;-0.58;nan;-23798.63;5031409;28;20198;-65
2023/12/10 02:01:49;;;;;;;4.17;1.77;;;;;;;-0.62;nan;-23797.63;5030599;28;20200;-64
2023/12/10 02:04:16;;;;;;;1.20;1.20;;;;;;;-0.60;nan;-23798.06;5030656;28;20185;-65
2023/12/10 02:06:42;;;;;;;1.60;1.50;;;;;;;-0.42;nan;-23803.22;5030340;28;20654;-65
2023/12/10 02:09:13;;;;;;;2.50;2.30;;;;;;;-0.25;nan;-23808.09;5029847;28;20183;-64
2023/12/10 02:11:39;;;;;;;1.23;1.20;;;;;;;-0.61;nan;-23797.78;5026547;28;20639;-66
2023/12/10 02:14:05;;;;;;;1.40;1.33;;;;;;;-0.45;nan;-23802.34;5029880;28;20208;-64
2023/12/10 02:16:31;;;;;;;1.50;1.40;;;;;;;-0.45;nan;-23802.50;5030209;28;20655;-64
2023/12/10 02:18:56;;;;;;;2.47;2.27;;;;;;;-0.45;nan;-23802.34;5029388;28;20183;-64
2023/12/10 02:21:22;;;;;;;1.77;1.67;;;;;;;-0.52;nan;-23800.50;5030703;28;20191;-65
2023/12/10 02:24:02;;;;;;;1.77;1.70;;;;;;;-0.40;nan;-23803.78;5030195;28;20177;-64
2023/12/10 02:26:28;;;;;;;1.93;1.43;;;;;;;-0.38;nan;-23804.38;5030427;28;20195;-65
2023/12/10 02:28:54;;;;;;;1.83;1.70;;;;;;;-0.64;nan;-23796.91;5030102;28;20262;-64
2023/12/10 02:31:20;;;;;;;2.90;2.00;;;;;;;-0.35;nan;-23805.22;5029992;28;20255;-64
2023/12/10 02:33:45;;;;;;;1.90;1.67;;;;;;;-0.55;nan;-23799.50;5029978;28;20179;-64
2023/12/10 02:36:12;;;;;;;1.87;1.77;;;;;;;-0.53;nan;-23800.06;5029256;28;20645;-65
2023/12/10 02:38:38;;;;;;;1.80;1.70;;;;;;;-0.35;nan;-23805.09;5025327;28;20193;-64
2023/12/10 02:41:04;;;;;;;2.00;1.90;;;;;;;-0.39;nan;-23804.06;5033609;28;20299;-63
2023/12/10 02:43:29;;;;;;;1.97;1.87;;;;;;;-0.60;nan;-23798.06;5030419;28;20536;-65
2023/12/10 02:45:55;;;;;;;4.00;1.50;;;;;;;-0.29;nan;-23806.94;5029859;28;20234;-65
2023/12/10 02:48:21;;;;;;;1.47;1.40;;;;;;;-0.41;nan;-23803.50;5030495;28;20180;-65
2023/12/10 02:50:48;;;;;;;1.50;1.40;;;;;;;-0.32;nan;-23805.94;5027407;28;20585;-64
2023/12/10 02:53:14;;;;;;;1.60;1.50;;;;;;;-0.56;nan;-23799.34;5031248;28;20269;-64
2023/12/10 02:55:40;;;;;;;1.67;1.57;;;;;;;-0.68;nan;-23795.75;5029606;28;20794;-65
2023/12/10 02:58:05;;;;;;;2.00;1.90;;;;;;;-0.49;nan;-23801.22;5028664;28;20191;-64
2023/12/10 03:00:31;;;;;;;1.90;1.80;;;;;;;-0.23;nan;-23808.53;5029722;28;20540;-65
2023/12/10 03:02:56;;;;;;;1.50;1.40;;;;;;;-0.39;nan;-23804.06;5029699;28;20664;-64
2023/12/10 03:05:22;;;;;;;1.53;1.43;;;;;;;-0.29;nan;-23806.94;5027121;28;20182;-65
2023/12/10 03:07:47;;;;;;;1.50;1.40;;;;;;;-0.09;nan;-23812.66;5029061;28;20205;-64
2023/12/10 03:10:13;;;;;;;1.50;1.40;;;;;;;-0.22;nan;-23808.81;5029507;28;20248;-64
2023/12/10 03:12:38;;;;;;;1.60;1.53;;;;;;;0.12;nan;-23818.41;5025978;28;20184;-64
2023/12/10 03:15:04;;;;;;;1.60;1.50;;;;;;;-0.18;nan;-23810.09;5029146;28;20769;-64
2023/12/10 03:17:30;;;;;;;1.73;1.63;;;;;;;-0.08;nan;-23812.97;5029542;28;20205;-65
2023/12/10 03:19:55;;;;;;;1.50;1.40;;;;;;;-0.30;nan;-23806.66;5029330;28;20241;-64
2023/12/10 03:22:21;;;;;;;1.80;1.70;;;;;;;-0.15;nan;-23810.97;5029185;28;20271;-64
2023/12/10 03:24:46;;;;;;;2.23;1.90;;;;;;;-0.16;nan;-23810.66;5029212;28;20657;-63
2023/12/10 03:27:12;;;;;;;2.03;1.83;;;;;;;0.08;nan;-23817.25;5029604;28;20557;-64
2023/12/10 03:29:37;;;;;;;1.53;1.43;;;;;;;-0.04;nan;-23814.09;5029607;28;20729;-64
2023/12/10 03:32:03;;;;;;;1.60;1.50;;;;;;;-0.02;nan;-23814.69;5028893;28;20274;-64
2023/12/10 03:34:28;;;;;;;1.80;1.70;;;;;;;0.03;nan;-23815.97;5029234;28;20705;-64
2023/12/10 03:36:54;;;;;;;1.30;1.30;;;;;;;0.23;nan;-23821.56;5028638;28;20212;-64
2023/12/10 03:39:19;;;;;;;1.60;1.50;;;;;;;0.03;nan;-23815.81;5029868;28;20209;-64
2023/12/10 03:41:45;;;;;;;1.63;1.53;;;;;;;-0.02;nan;-23814.69;5029694;28;20650;-64
2023/12/10 03:44:10;;;;;;;1.73;1.63;;;;;;;0.18;nan;-23820.13;5034102;28;20570;-63
2023/12/10 03:46:36;;;;;;;2.07;1.97;;;;;;;-0.01;nan;-23814.81;5028424;28;20194;-64
2023/12/10 03:49:02;;;;;;;2.43;2.07;;;;;;;0.23;nan;-23821.69;5027972;28;20190;-65
2023/12/10 03:51:28;;;;;;;1.70;1.60;;;;;;;0.22;nan;-23821.25;5031321;28;20253;-64
2023/12/10 03:53:53;;;;;;;1.37;1.30;;;;;;;-0.04;nan;-23814.09;5032785;28;20191;-65
2023/12/10 03:56:19;;;;;;;1.30;1.30;;;;;;;0.38;nan;-23826.00;5033852;28;20606;-64
2023/12/10 03:58:44;;;;;;;2.60;2.03;;;;;;;0.17;nan;-23819.84;5033117;28;20240;-65
2023/12/10 04:01:10;;;;;;;1.93;1.83;;;;;;;0.13;nan;-23818.84;5032614;28;20183;-64
2023/12/10 04:03:35;;;;;;;2.37;2.17;;;;;;;0.17;nan;-23819.97;5033145;28;20708;-64
2023/12/10 04:06:01;;;;;;;1.20;1.20;;;;;;;-0.09;nan;-23812.66;5029409;28;20887;-64
2023/12/10 04:08:27;;;;;;;1.30;1.30;;;;;;;-0.19;nan;-23809.81;5030490;28;20184;-64
2023/12/10 04:10:52;;;;;;;2.03;1.93;;;;;;;-0.04;nan;-23814.09;5028894;28;20249;-63
2023/12/10 04:13:18;;;;;;;1.17;1.17;;;;;;;-0.14;nan;-23811.09;5030648;28;20257;-64
2023/12/10 04:15:47;;;;;;;1.60;1.50;;;;;;;-0.34;nan;-23805.50;5031572;28;20348;-64
2023/12/10 04:18:14;;;;;;;1.73;1.63;;;;;;;-0.21;nan;-23809.09;5062691;28;20725;-64
2023/12/10 04:20:42;;;;;;;1.77;1.67;;;;;;;-0.44;nan;-23802.66;5033096;28;20709;-64
2023/12/10 04:23:07;;;;;;;1.80;1.70;;;;;;;-0.31;nan;-23806.38;5032627;28;20187;-64
2023/12/10 04:25:33;;;;;;;1.87;1.77;;;;;;;-0.18;nan;-23810.09;5032892;28;20377;-64
2023/12/10 04:27:58;;;;;;;1.80;1.70;;;;;;;0.02;nan;-23815.69;5032592;28;20189;-63
2023/12/10 04:30:24;;;;;;;1.37;1.37;;;;;;;0.02;nan;-23815.53;5032518;28;20232;-65
2023/12/10 04:32:50;;;;;;;2.00;1.67;;;;;;;0.21;nan;-23821.13;5032253;28;20268;-64
2023/12/10 04:35:15;;;;;;;1.70;1.60;;;;;;;0.24;nan;-23821.97;5024655;28;20587;-64
2023/12/10 04:37:41;;;;;;;3.07;2.87;;;;;;;0.56;nan;-23830.84;5032148;28;20586;-64
2023/12/10 04:40:08;;;;;;;1.90;1.70;;;;;;;0.56;nan;-23831.00;5031015;28;20198;-64
2023/12/10 04:42:33;;;;;;;1.90;1.60;;;;;;;0.55;nan;-23830.56;5032134;28;20187;-65
2023/12/10 04:44:59;;;;;;;1.20;1.20;;;;;;;0.41;nan;-23826.72;5032169;28;20175;-64
2023/12/10 04:47:24;;;;;;;3.20;1.97;;;;;;;0.37;nan;-23825.69;5032184;28;20558;-65
2023/12/10 04:49:49;;;;;;;1.30;1.20;;;;;;;0.56;nan;-23831.00;5036587;28;20654;-64
2023/12/10 04:52:15;;;;;;;1.50;1.40;;;;;;;0.51;nan;-23829.44;5031829;28;20610;-64
2023/12/10 04:54:40;;;;;;;1.63;1.53;;;;;;;0.50;nan;-23829.13;5032441;28;20569;-64
2023/12/10 04:57:06;;;;;;;1.57;1.47;;;;;;;0.51;nan;-23829.44;5031219;28;20254;-63
2023/12/10 04:59:32;;;;;;;2.63;1.90;;;;;;;0.33;nan;-23824.41;5032157;28;20245;-64
2023/12/10 05:01:57;;;;;;;1.73;1.63;;;;;;;0.38;nan;-23826.00;5033136;28;20221;-65
2023/12/10 05:04:23;;;;;;;1.30;1.30;;;;;;;0.64;nan;-23833.16;5032934;28;20646;-64
2023/12/10 05:06:48;;;;;;;2.03;1.93;;;;;;;0.64;nan;-23833.16;5033559;28;20198;-64
2023/12/10 05:09:14;;;;;;;2.50;2.30;;;;;;;0.34;nan;-23824.69;5033003;28;20237;-64
2023/12/10 05:11:39;;;;;;;1.70;1.60;;;;;;;0.43;nan;-23827.28;5033073;28;20608;-63
2023/12/10 05:14:05;;;;;;;1.83;1.73;;;;;;;0.50;nan;-23829.28;5032792;28;20202;-64
2023/12/10 05:16:32;;;;;;;2.00;1.80;;;;;;;0.60;nan;-23832.13;5032783;28;20536;-64
2023/12/10 05:18:57;;;;;;;4.00;2.50;;;;;;;0.69;nan;-23834.72;5032677;28;20182;-64
2023/12/10 05:21:22;;;;;;;1.33;1.33;;;;;;;0.55;nan;-23830.72;5032859;28;20561;-64
2023/12/10 05:23:48;;;;;;;2.93;1.80;;;;;;;0.66;nan;-23833.72;5032786;28;20174;-64
2023/12/10 05:26:13;;;;;;;1.73;1.53;;;;;;;0.46;nan;-23828.13;5032658;28;20175;-65
2023/12/10 05:28:39;;;;;;;2.30;2.10;;;;;;;0.70;nan;-23835.00;5032739;28;20587;-63
2023/12/10 05:31:04;;;;;;;3.27;1.97;;;;;;;0.66;nan;-23833.72;5032620;28;20284;-64
2023/12/10 05:33:31;;;;;;;1.80;1.70;;;;;;;0.59;nan;-23831.84;5032360;28;20183;-63
2023/12/10 05:35:58;;;;;;;2.13;2.03;;;;;;;0.65;nan;-23833.56;5031049;28;20218;-65
2023/12/10 05:38:23;;;;;;;1.70;1.47;;;;;;;0.74;nan;-23836.16;5032379;28;20179;-65
2023/12/10 05:40:49;;;;;;;2.17;2.07;;;;;;;0.55;nan;-23830.72;5032741;28;20171;-64
2023/12/10 05:43:15;;;;;;;2.03;1.80;;;;;;;0.77;nan;-23836.88;5032405;28;20194;-65
2023/12/10 05:45:41;;;;;;;2.27;2.07;;;;;;;0.49;nan;-23828.84;5031338;28;20274;-65
2023/12/10 05:48:06;;;;;;;1.97;1.77;;;;;;;0.73;nan;-23835.72;5032170;28;20217;-64
2023/12/10 05:50:32;;;;;;;1.37;1.37;;;;;;;0.70;nan;-23835.00;5032212;28;20254;-64
2023/12/10 05:52:57;;;;;;;1.70;1.60;;;;;;;0.79;nan;-23837.44;5035690;28;20180;-63
2023/12/10 05:55:22;;;;;;;1.73;1.63;;;;;;;0.56;nan;-23831.00;5033300;28;20206;-64
2023/12/10 05:57:48;;;;;;;1.73;1.63;;;;;;;0.89;nan;-23840.28;5031967;28;20167;-65
2023/12/10 06:00:13;;;;;;;1.37;1.37;;;;;;;0.83;nan;-23838.72;5032312;28;20294;-65
2023/12/10 06:02:39;;;;;;;1.37;1.30;;;;;;;0.91;nan;-23840.88;5032061;28;20176;-64
2023/12/10 06:05:04;;;;;;;1.50;1.40;;;;;;;0.96;nan;-23842.31;5031858;28;20179;-64
2023/12/10 06:07:30;;;;;;;2.30;2.13;;;;;;;0.49;nan;-23829.00;5031882;28;20611;-64
2023/12/10 06:09:55;;;;;;;1.60;1.33;;;;;;;0.50;nan;-23829.13;5032354;28;20218;-64
2023/12/10 06:12:21;;;;;;;2.23;1.60;;;;;;;0.46;nan;-23828.00;5032108;28;20693;-64
2023/12/10 06:14:46;;;;;;;1.20;1.20;;;;;;;0.59;nan;-23831.84;5031088;28;20244;-64
2023/12/10 06:17:12;;;;;;;1.60;1.50;;;;;;;0.65;nan;-23833.56;5031596;28;20183;-64
2023/12/10 06:19:38;;;;;;;1.20;1.20;;;;;;;0.61;nan;-23832.44;5031904;28;20183;-64
2023/12/10 06:22:03;;;;;;;1.50;1.40;;;;;;;0.75;nan;-23836.28;5030216;28;20251;-65
2023/12/10 06:24:29;;;;;;;1.83;1.73;;;;;;;0.74;nan;-23836.16;5031724;28;20183;-64
2023/12/10 06:26:54;;;;;;;1.60;1.50;;;;;;;0.67;nan;-23834.16;5031821;28;20167;-63
2023/12/10 06:29:20;;;;;;;1.97;1.87;;;;;;;0.61;nan;-23832.44;5031433;28;20170;-63
2023/12/10 06:31:45;;;;;;;1.87;1.77;;;;;;;0.73;nan;-23835.88;5031540;28;20458;-64
2023/12/10 06:34:11;;;;;;;1.67;1.57;;;;;;;1.06;nan;-23845.03;5031275;28;20624;-64
2023/12/10 06:36:36;;;;;;;1.60;1.50;;;;;;;1.09;nan;-23845.88;5031540;28;20598;-64
2023/12/10 06:39:02;;;;;;;1.83;1.73;;;;;;;1.25;nan;-23850.44;5031578;28;20706;-64
2023/12/10 06:41:27;;;;;;;1.50;1.40;;;;;;;1.27;nan;-23851.03;5031518;28;20721;-65
2023/12/10 06:43:53;;;;;;;2.67;2.47;;;;;;;1.40;nan;-23854.75;5031134;28;20175;-64
2023/12/10 06:46:19;;;;;;;1.83;1.73;;;;;;;1.42;nan;-23855.31;5031047;28;20300;-65
2023/12/10 06:48:44;;;;;;;2.27;2.07;;;;;;;1.41;nan;-23854.88;5030884;28;20183;-64
2023/12/10 06:51:10;;;;;;;2.83;2.63;;;;;;;1.16;nan;-23848.03;5031118;28;20569;-64
2023/12/10 06:53:36;;;;;;;1.60;1.50;;;;;;;1.01;nan;-23843.59;5031115;28;20198;-65
2023/12/10 06:56:01;;;;;;;2.03;1.83;;;;;;;1.13;nan;-23847.16;5030948;28;20207;-63
2023/12/10 06:58:27;;;;;;;1.63;1.53;;;;;;;1.00;nan;-23843.44;5032968;28;20635;-64
2023/12/10 07:00:53;;;;;;;1.87;1.77;;;;;;;1.00;nan;-23843.44;5031073;28;20190;-64
2023/12/10 07:03:19;;;;;;;2.50;1.97;;;;;;;1.21;nan;-23849.44;5030641;28;20171;-64
2023/12/10 07:05:44;;;;;;;2.33;1.63;;;;;;;0.94;nan;-23841.59;5028856;28;20191;-64
2023/12/10 07:08:10;;;;;;;4.10;2.10;;;;;;;1.24;nan;-23850.16;5031050;28;20170;-63
2023/12/10 07:10:35;;;;;;;1.90;1.80;;;;;;;1.08;nan;-23845.59;5030961;28;20247;-64
2023/12/10 07:13:00;;;;;;;1.60;1.50;;;;;;;1.34;nan;-23853.16;5030622;28;20179;-64
2023/12/10 07:15:26;;;;;;;1.63;1.53;;;;;;;1.31;nan;-23852.16;5030529;28;20678;-64
2023/12/10 07:17:51;;;;;;;3.00;2.03;;;;;;;1.44;nan;-23855.75;5030226;28;20182;-64
2023/12/10 07:20:17;;;;;;;1.80;1.70;;;;;;;1.44;nan;-23855.88;5029239;28;20538;-64
2023/12/10 07:22:43;;;;;;;2.83;2.20;;;;;;;1.53;nan;-23858.31;5030674;28;20584;-64
2023/12/10 07:25:08;;;;;;;1.60;1.53;;;;;;;1.63;nan;-23861.31;5030688;28;20533;-66
2023/12/10 07:27:34;;;;;;;1.77;1.67;;;;;;;1.66;nan;-23862.19;5035046;28;20281;-64
2023/12/10 07:29:59;;;;;;;1.87;1.77;;;;;;;1.51;nan;-23857.75;5034825;28;20223;-64
2023/12/10 07:32:25;;;;;;;1.63;1.53;;;;;;;1.51;nan;-23857.88;5034071;28;20182;-64
2023/12/10 07:34:51;;;;;;;1.57;1.47;;;;;;;1.81;nan;-23866.16;5033594;28;20218;-64
2023/12/10 07:37:16;;;;;;;1.70;1.60;;;;;;;1.79;nan;-23865.75;5034222;28;20187;-65
2023/12/10 07:39:42;;;;;;;6.70;2.17;;;;;;;1.59;nan;-23860.16;5034964;28;20634;-63
2023/12/10 07:42:07;;;;;;;1.67;1.57;;;;;;;1.94;nan;-23869.88;5034956;28;20241;-64
2023/12/10 07:44:33;;;;;;;2.37;2.23;;;;;;;1.96;nan;-23870.47;5034616;28;20226;-64
2023/12/10 07:46:59;;;;;;;2.90;2.07;;;;;;;2.06;nan;-23873.31;5034466;28;20168;-64
2023/12/10 07:49:24;;;;;;;3.00;2.80;;;;;;;1.90;nan;-23868.75;5034655;28;20179;-65
2023/12/10 07:51:50;;;;;;;2.30;2.10;;;;;;;2.18;nan;-23876.75;5034422;28;20172;-64
2023/12/10 07:54:15;;;;;;;1.80;1.70;;;;;;;2.23;nan;-23878.16;5034775;28;20193;-64
2023/12/10 07:56:40;;;;;;;1.83;1.73;;;;;;;2.28;nan;-23877.75;5034403;28;20587;-64
2023/12/10 07:59:06;;;;;;;7.33;2.47;;;;;;;2.43;nan;-23567.47;5036705;28;20551;-65
2023/12/10 08:01:31;;;;;;;2.50;2.30;;;;;;;2.20;nan;-23561.16;5032892;28;20184;-64
2023/12/10 08:03:57;;;;;;;2.23;2.03;;;;;;;2.26;nan;-23562.69;5034202;28;20646;-64
2023/12/10 08:06:22;;;;;;;2.33;2.13;;;;;;;2.45;nan;-23568.16;5033888;28;20209;-64
2023/12/10 08:08:48;;;;;;;3.67;2.33;;;;;;;2.25;nan;-23562.41;5034463;28;20179;-64
2023/12/10 08:11:13;;;;;;;2.43;2.23;;;;;;;2.35;nan;-23565.22;5034381;28;20168;-65
2023/12/10 08:13:38;;;;;;;1.63;1.53;;;;;;;2.11;nan;-23873.03;5032888;28;20168;-65
2023/12/10 08:16:05;;;;;;;2.37;2.17;;;;;;;2.09;nan;-23872.47;5033871;28;20202;-64
2023/12/10 08:18:31;;;;;;;3.47;3.17;;;;;;;2.21;nan;-23875.75;5034196;28;20662;-64
2023/12/10 08:20:56;;;;;;;4.20;2.33;;;;;;;2.28;nan;-23563.41;5033954;28;20176;-64
2023/12/10 08:23:21;;;;;;;3.13;2.43;;;;;;;2.41;nan;-23881.47;5033986;28;20175;-64
2023/12/10 08:25:47;;;;;;;4.33;2.83;;;;;;;2.38;nan;-23880.63;5034264;28;20174;-65
2023/12/10 08:28:12;;;;;;;2.23;2.03;;;;;;;2.08;nan;-23872.19;5031846;28;20175;-64
2023/12/10 08:30:38;;;;;;;2.03;1.93;;;;;;;2.08;nan;-23872.19;5033476;28;20229;-65
2023/12/10 08:33:03;;;;;;;2.10;2.00;;;;;;;2.23;nan;-23876.31;5032295;28;20646;-64
2023/12/10 08:35:29;;;;;;;3.33;2.90;;;;;;;2.24;nan;-23878.47;5033475;28;20206;-64
2023/12/10 08:37:54;;;;;;;2.50;2.30;;;;;;;2.06;nan;-23873.31;5033271;28;20548;-65
2023/12/10 08:40:20;;;;;;;2.53;2.33;;;;;;;2.11;nan;-23874.88;5033670;28;20171;-64
2023/12/10 08:42:46;;;;;;;2.00;1.90;;;;;;;1.96;nan;-23870.59;5033502;28;20290;-65
2023/12/10 08:45:12;;;;;;;1.67;1.57;;;;;;;2.09;nan;-23874.31;5033477;28;20180;-64
2023/12/10 08:47:37;;;;;;;1.10;1.10;;;;;;;2.09;nan;-23874.16;5033435;28;20681;-65
2023/12/10 08:50:04;;;;;;;1.70;1.60;;;;;;;2.13;nan;-23875.31;5033505;28;20171;-65
2023/12/10 08:52:29;;;;;;;2.20;2.00;;;;;;;2.19;nan;-23877.03;5033687;28;20176;-65
2023/12/10 08:54:55;;;;;;;2.20;1.73;;;;;;;2.24;nan;-23878.47;5033179;28;20203;-65
2023/12/10 08:57:22;;;;;;;1.93;1.83;;;;;;;2.42;nan;-23883.59;5033226;28;20766;-65
2023/12/10 08:59:47;;;;;;;1.80;1.70;;;;;;;2.38;nan;-23882.31;5035405;28;20626;-65
2023/12/10 09:02:13;;;;;;;3.80;2.23;;;;;;;2.57;nan;-23887.88;5033101;28;20179;-65
2023/12/10 09:04:38;;;;;;;1.50;1.40;;;;;;;2.73;nan;-23892.16;5033533;28;20175;-65
2023/12/10 09:07:04;;;;;;;2.37;2.17;;;;;;;2.81;nan;-23892.59;5033155;28;20238;-64
2023/12/10 09:09:29;;;;;;;2.93;2.00;;;;;;;2.67;nan;-23888.75;5033151;28;20266;-64
2023/12/10 09:11:54;;;;;;;2.00;1.90;;;;;;;2.67;nan;-23259.72;5033246;28;20226;-65
2023/12/10 09:14:21;;;;;;;1.60;1.50;;;;;;;2.58;nan;-23571.81;5032964;28;20253;-64
2023/12/10 09:16:47;;;;;;;2.80;2.60;;;;;;;2.65;nan;-23573.75;5033025;28;20232;-63
2023/12/10 09:19:14;;;;;;;2.63;2.43;;;;;;;2.88;nan;-23579.94;5033149;28;20752;-64
2023/12/10 09:21:39;;;;;;;2.80;2.17;;;;;;;2.79;nan;-23577.53;5033335;28;20229;-64
2023/12/10 09:24:05;;;;;;;1.90;1.70;;;;;;;3.11;nan;-23271.56;5032888;28;20175;-64
2023/12/10 09:26:31;;;;;;;2.47;2.33;;;;;;;3.15;nan;-22957.66;5032822;28;20258;-64
2023/12/10 09:28:56;;;;;;;2.80;1.97;;;;;;;3.10;nan;-23271.28;5032715;28;20171;-65
2023/12/10 09:31:21;;;;;;;1.73;1.63;;;;;;;2.89;nan;-23265.50;5031744;28;20227;-65
2023/12/10 09:33:48;;;;;;;2.30;2.13;;;;;;;2.92;nan;-23266.47;5031864;28;20265;-65
2023/12/10 09:36:16;;;;;;;7.73;2.40;;;;;;;3.17;nan;-23273.06;5032365;28;20290;-65
2023/12/10 09:38:42;;;;;;;1.80;1.70;;;;;;;3.01;nan;-23268.94;5032161;28;20628;-64
2023/12/10 09:41:07;;;;;;;3.67;2.17;;;;;;;3.01;nan;-22954.00;5031986;28;20642;-64
2023/12/10 09:43:33;;;;;;;2.60;2.10;;;;;;;3.24;nan;-23275.13;5030752;28;20187;-63
2023/12/10 09:46:00;;;;;;;1.97;1.87;;;;;;;3.09;nan;-23271.00;5032116;28;20793;-64
2023/12/10 09:48:26;;;;;;;1.60;1.50;;;;;;;3.30;nan;-22961.81;5031123;28;20179;-64
2023/12/10 09:50:53;;;;;;;1.80;1.70;;;;;;;3.37;nan;-23278.56;5031843;28;20282;-64
2023/12/10 09:53:21;;;;;;;2.77;2.33;;;;;;;3.37;nan;-22963.72;5031990;28;20220;-65
2023/12/10 09:55:46;;;;;;;2.17;2.07;;;;;;;3.25;nan;-22960.47;5031626;28;20706;-64
2023/12/10 09:58:12;;;;;;;2.53;2.03;;;;;;;3.33;nan;-23277.59;5031897;28;20179;-64
2023/12/10 10:00:37;;;;;;;2.63;2.43;;;;;;;3.50;nan;-22967.22;5034635;28;20201;-64
2023/12/10 10:03:03;;;;;;;2.20;2.10;;;;;;;3.23;nan;-22645.00;5031438;28;20179;-68
2023/12/10 10:05:29;;;;;;;6.13;2.20;;;;;;;3.63;nan;-22655.31;5031517;28;20187;-65
2023/12/10 10:07:55;;;;;;;2.10;1.90;;;;;;;3.45;nan;-22020.63;5031895;28;20171;-65
2023/12/10 10:10:22;;;;;;;3.17;2.43;;;;;;;3.43;nan;-22020.09;5031577;28;20183;-67
2023/12/10 10:12:48;;;;;;;1.30;1.30;;;;;;;3.27;nan;-22961.03;5031660;28;20544;-66
2023/12/10 10:15:13;;;;;;;4.83;2.37;;;;;;;3.24;nan;-23275.00;5031419;28;20214;-65
2023/12/10 10:17:42;;;;;;;2.53;2.30;;;;;;;3.43;nan;-23280.34;5031841;28;20542;-64
2023/12/10 10:20:09;;;;;;;3.77;2.70;;;;;;;3.60;nan;-22654.66;5031641;28;20631;-67
2023/12/10 10:22:35;;;;;;;2.33;2.23;;;;;;;3.37;nan;-22963.59;5030788;28;20556;-65
2023/12/10 10:25:03;;;;;;;4.33;2.30;;;;;;;3.28;nan;-22961.28;5031931;28;20258;-65
2023/12/10 10:27:31;;;;;;;2.03;1.87;;;;;;;3.29;nan;-23276.34;5031323;28;20175;-64
2023/12/10 10:29:57;;;;;;;3.07;2.73;;;;;;;3.04;nan;-23269.63;5031508;28;20269;-64
2023/12/10 10:32:23;;;;;;;3.60;2.57;;;;;;;3.24;nan;-23275.00;5030847;28;20191;-65
2023/12/10 10:34:50;;;;;;;2.37;2.17;;;;;;;3.11;nan;-23271.56;5031260;28;20202;-66
2023/12/10 10:37:17;;;;;;;3.40;2.23;;;;;;;3.04;nan;-23269.63;5031501;28;20217;-64
2023/12/10 10:39:44;;;;;;;2.47;2.27;;;;;;;3.22;nan;-23589.44;5031214;28;20580;-64
2023/12/10 10:42:11;;;;;;;2.23;2.13;;;;;;;3.35;nan;-23592.94;5030890;28;20183;-63
2023/12/10 10:44:37;;;;;;;3.20;2.87;;;;;;;3.06;nan;-23584.97;5031268;28;20603;-65
2023/12/10 10:47:08;;;;;;;2.10;2.00;;;;;;;3.18;nan;-23588.34;5030705;28;20177;-65
2023/12/10 10:49:41;;;;;;;2.43;2.23;;;;;;;3.42;nan;-22964.94;5031464;28;20188;-65
2023/12/10 10:52:15;;;;;;;2.27;2.10;;;;;;;2.97;nan;-22952.94;5031637;28;20190;-65
2023/12/10 10:54:41;;;;;;;2.10;1.77;;;;;;;3.11;nan;-23271.56;5030785;28;20214;-65
2023/12/10 10:57:07;;;;;;;1.80;1.70;;;;;;;2.78;nan;-23577.25;5030274;28;20669;-64
2023/12/10 10:59:33;;;;;;;1.90;1.70;;;;;;;3.00;nan;-23583.44;5030291;28;20191;-64
2023/12/10 11:02:09;;;;;;;1.70;1.60;;;;;;;3.18;nan;-23588.19;5032884;28;20349;-64
2023/12/10 11:04:37;;;;;;;3.03;2.40;;;;;;;3.28;nan;-23591.13;5029711;28;20183;-64
2023/12/10 11:07:04;;;;;;;3.70;2.90;;;;;;;3.28;nan;-23591.13;5031082;28;20183;-64
2023/12/10 11:09:33;;;;;;;3.07;2.77;;;;;;;3.32;nan;-23592.25;5030143;28;20308;-65
2023/12/10 11:11:59;;;;;;;2.80;2.17;;;;;;;3.44;nan;-23280.47;5031287;28;20193;-65
2023/12/10 11:14:27;;;;;;;1.83;1.73;;;;;;;3.44;nan;-23280.63;5031232;28;20207;-65
2023/12/10 11:16:59;;;;;;;3.13;2.93;;;;;;;3.48;nan;-23596.59;5032057;28;20168;-64
2023/12/10 11:19:25;;;;;;;3.27;2.23;;;;;;;3.34;nan;-23592.66;5030554;28;20222;-64
2023/12/10 11:21:51;;;;;;;4.80;2.47;;;;;;;3.39;nan;-23594.22;5031147;28;20621;-63
2023/12/10 11:24:17;;;;;;;2.00;1.90;;;;;;;3.49;nan;-23597.00;5029438;28;20199;-65
2023/12/10 11:26:42;;;;;;;2.83;2.63;;;;;;;3.43;nan;-23280.22;5030610;28;20183;-64
2023/12/10 11:29:08;;;;;;;3.40;3.10;;;;;;;3.21;nan;-23589.03;5030573;28;20610;-63
2023/12/10 11:31:35;;;;;;;5.33;2.47;;;;;;;3.06;nan;-23584.97;5031047;28;20226;-65
2023/12/10 11:34:00;;;;;;;2.33;2.13;;;;;;;2.96;nan;-23897.03;5029897;28;20619;-65
2023/12/10 11:36:26;;;;;;;3.87;2.93;;;;;;;2.89;nan;-23894.88;5030138;28;20192;-66
2023/12/10 11:38:51;;;;;;;7.37;2.87;;;;;;;3.19;nan;-23903.44;5030617;28;20185;-64
2023/12/10 11:41:18;;;;;;;2.43;2.23;;;;;;;3.05;nan;-23899.44;5029917;28;20637;-65